Time;durP1;ratioP1;P1;durP2;ratioP2;P2;SDS_P1;SDS_P2;PMS_P1;PMS_P2;Temp;Humidity;BMP_temperature;BMP_pressure;BME280_temperature;BME280_humidity;BME280_pressure;Samples;Min_cycle;Max_cycle;Signal;HPM_P1;HPM_P2
2022/11/19 00:01:18;;;;;;;28.98;19.05;;;;;;;2.83;68.82;99275.16;5072387;28;20572;-88
2022/11/19 00:03:45;;;;;;;27.95;18.67;;;;;;;2.84;69.38;99279.47;5072382;28;20052;-90
2022/11/19 00:06:21;;;;;;;29.00;19.90;;;;;;;2.84;68.64;99279.47;5072164;28;20049;-85
2022/11/19 00:08:47;;;;;;;26.95;18.85;;;;;;;2.84;69.00;99275.09;5071907;28;20052;-87
2022/11/19 00:14:06;;;;;;;29.02;19.15;;;;;;;2.82;69.26;99281.25;5072053;28;20049;-90
2022/11/19 00:16:33;;;;;;;30.35;19.98;;;;;;;2.82;69.05;99283.84;5071707;28;20414;-83
2022/11/19 00:18:59;;;;;;;29.75;20.08;;;;;;;2.82;68.94;99286.47;5071798;28;20510;-89
2022/11/19 00:21:26;;;;;;;25.60;18.15;;;;;;;2.80;68.99;99291.69;5053533;28;20489;-89
2022/11/19 00:23:53;;;;;;;25.55;18.55;;;;;;;2.80;68.84;99289.09;5053960;28;20059;-89
2022/11/19 00:26:20;;;;;;;28.67;19.67;;;;;;;2.79;68.89;99287.41;5071592;28;20489;-88
2022/11/19 00:28:47;;;;;;;27.85;18.67;;;;;;;2.80;68.84;99293.47;5071243;28;20071;-85
2022/11/19 00:31:15;;;;;;;28.05;19.30;;;;;;;2.80;68.59;99296.91;5053842;28;20497;-86
2022/11/19 00:33:43;;;;;;;28.23;18.20;;;;;;;2.80;69.01;99290.88;5053425;28;20056;-87
2022/11/19 00:36:12;;;;;;;28.45;18.58;;;;;;;2.78;68.88;99293.50;5071422;28;20057;-85
2022/11/19 00:38:39;;;;;;;27.23;17.98;;;;;;;2.80;68.82;99304.69;5071404;28;20148;-87
2022/11/19 00:41:06;;;;;;;31.58;19.33;;;;;;;2.79;69.25;99292.59;5071161;28;20598;-89
2022/11/19 00:43:48;;;;;;;28.35;19.08;;;;;;;2.80;68.75;99303.88;5071276;28;20071;-87
2022/11/19 00:46:24;;;;;;;26.48;18.38;;;;;;;2.79;68.26;99302.13;5071222;28;20574;-89
2022/11/19 00:48:52;;;;;;;26.83;17.15;;;;;;;2.79;68.82;99295.22;5070992;28;20568;-88
2022/11/19 00:51:20;;;;;;;27.92;18.58;;;;;;;2.78;69.16;99298.72;5070227;28;20048;-87
2022/11/19 00:53:47;;;;;;;30.55;18.98;;;;;;;2.77;68.67;99291.81;5050712;28;20056;-88
2022/11/19 00:56:16;;;;;;;26.48;17.67;;;;;;;2.76;68.46;99299.66;5070400;28;20061;-87
2022/11/19 00:58:44;;;;;;;28.65;18.17;;;;;;;2.76;68.36;99302.25;5043320;28;20400;-87
2022/11/19 01:01:12;;;;;;;27.40;18.13;;;;;;;2.73;68.50;99304.03;5051734;28;20057;-87
2022/11/19 01:03:40;;;;;;;24.52;17.75;;;;;;;2.72;68.66;99302.34;5050944;28;20057;-86
2022/11/19 01:06:07;;;;;;;31.45;18.05;;;;;;;2.72;68.88;99306.69;5050896;28;20452;-88
2022/11/19 01:08:34;;;;;;;25.30;17.65;;;;;;;2.71;68.42;99311.06;5051008;28;20053;-88
2022/11/19 01:11:11;;;;;;;25.55;17.33;;;;;;;2.68;68.58;99318.06;5051305;28;20064;-84
2022/11/19 01:13:38;;;;;;;25.83;17.40;;;;;;;2.69;68.64;99315.44;5051068;28;20158;-89
2022/11/19 01:16:08;;;;;;;30.50;17.77;;;;;;;2.67;68.48;99312.06;5033425;28;20435;-88
2022/11/19 01:18:37;;;;;;;26.98;18.67;;;;;;;2.66;68.62;99312.09;5050975;28;20147;-88
2022/11/19 01:21:04;;;;;;;26.20;17.38;;;;;;;2.63;68.73;99313.03;5050829;28;20144;-86
2022/11/19 01:23:32;;;;;;;24.45;16.88;;;;;;;2.62;68.18;99320.88;5050792;28;20056;-89
2022/11/19 01:25:59;;;;;;;24.25;16.77;;;;;;;2.62;68.67;99326.94;5050519;28;20574;-88
2022/11/19 01:28:26;;;;;;;25.77;17.33;;;;;;;2.60;68.00;99328.72;5050693;28;20144;-85
2022/11/19 01:30:53;;;;;;;23.67;16.08;;;;;;;2.61;68.93;99330.41;5050793;28;20061;-88
2022/11/19 01:33:21;;;;;;;24.52;16.27;;;;;;;2.62;68.73;99342.53;5032820;28;20061;-89
2022/11/19 01:35:59;;;;;;;23.77;16.45;;;;;;;2.59;68.51;99345.22;5050905;28;20060;-89
2022/11/19 01:38:26;;;;;;;23.20;16.23;;;;;;;2.61;68.76;99348.59;5033006;28;20053;-89
2022/11/19 01:40:54;;;;;;;26.55;16.27;;;;;;;2.61;68.35;99346.00;5032992;28;20096;-85
2022/11/19 01:43:46;;;;;;;24.40;15.88;;;;;;;2.59;68.02;99345.22;5032166;28;20126;-89
2022/11/19 01:46:15;;;;;;;25.30;16.23;;;;;;;2.62;68.22;99342.53;5020327;28;20049;-88
2022/11/19 01:48:47;;;;;;;26.50;16.38;;;;;;;2.63;68.46;99353.75;5032719;28;20053;-88
2022/11/19 01:51:29;;;;;;;23.92;15.88;;;;;;;2.59;67.83;99350.41;5050876;28;20139;-88
2022/11/19 01:53:59;;;;;;;23.50;15.60;;;;;;;2.61;68.42;99346.00;5050615;28;20516;-88
2022/11/19 01:56:27;;;;;;;23.98;15.30;;;;;;;2.62;68.31;99347.72;5032830;28;20053;-87
2022/11/19 02:01:49;;;;;;;22.38;15.07;;;;;;;2.61;68.05;99343.41;5008718;28;20151;-81
2022/11/19 02:04:19;;;;;;;22.63;15.27;;;;;;;2.59;67.82;99342.63;5010716;28;20061;-83
2022/11/19 02:06:46;;;;;;;22.35;14.77;;;;;;;2.58;67.83;99349.56;5010063;28;20050;-82
2022/11/19 02:09:13;;;;;;;24.35;16.02;;;;;;;2.55;67.72;99339.25;5010878;28;20054;-84
2022/11/19 02:12:04;;;;;;;24.50;15.93;;;;;;;2.51;67.88;99348.06;5010574;28;20054;-82
2022/11/19 02:14:52;;;;;;;23.13;15.07;;;;;;;2.47;67.60;99344.69;5010641;28;20542;-83
2022/11/19 02:17:49;;;;;;;21.98;14.20;;;;;;;2.45;67.69;99335.25;4993296;28;20050;-83
2022/11/19 02:20:44;;;;;;;22.40;14.68;;;;;;;2.44;68.15;99343.94;5010743;28;20137;-83
2022/11/19 02:23:48;;;;;;;25.27;14.98;;;;;;;2.40;67.97;99342.31;5010732;28;20057;-83
2022/11/19 02:26:33;;;;;;;25.30;15.63;;;;;;;2.40;67.85;99350.97;5010410;28;20050;-83
2022/11/19 02:29:12;;;;;;;21.80;14.50;;;;;;;2.38;67.92;99359.69;5010860;28;20068;-82
2022/11/19 02:31:53;;;;;;;23.95;14.88;;;;;;;2.31;67.34;99361.63;5010808;28;20054;-82
2022/11/19 02:34:31;;;;;;;24.10;14.60;;;;;;;2.32;68.02;99371.13;5010239;28;20054;-83
2022/11/19 02:37:04;;;;;;;21.70;14.40;;;;;;;2.31;67.89;99370.28;5011735;28;20088;-83
2022/11/19 02:39:33;;;;;;;23.15;14.80;;;;;;;2.31;68.02;99369.41;5010006;28;20462;-83
2022/11/19 02:42:17;;;;;;;24.67;15.18;;;;;;;2.31;67.72;99374.59;5002009;28;20054;-83
2022/11/19 02:45:04;;;;;;;24.42;15.77;;;;;;;2.32;67.82;99371.13;5010142;28;20056;-82
2022/11/19 02:47:45;;;;;;;24.95;15.55;;;;;;;2.29;67.63;99372.06;5006618;28;20150;-82
2022/11/19 02:50:22;;;;;;;23.00;15.20;;;;;;;2.30;67.94;99378.97;5010465;28;20050;-82
2022/11/19 02:52:49;;;;;;;22.88;15.07;;;;;;;2.31;68.18;99369.41;4992880;28;20050;-84
2022/11/19 02:55:18;;;;;;;23.02;14.95;;;;;;;2.30;68.26;99372.91;5011422;28;20057;-82
2022/11/19 02:57:57;;;;;;;23.52;15.27;;;;;;;2.28;67.66;99370.34;4996171;28;20590;-82
2022/11/19 03:06:17;;;;;;;24.20;14.80;;;;;;;2.22;67.11;99391.31;5033485;28;20143;-82
2022/11/19 03:08:45;;;;;;;22.05;14.88;;;;;;;2.22;67.92;99386.13;5004052;28;20046;-83
2022/11/19 03:11:27;;;;;;;24.50;15.55;;;;;;;2.17;67.15;99386.25;5013701;28;20058;-82
2022/11/19 03:17:16;;;;;;;23.35;15.45;;;;;;;2.11;67.51;99389.03;5002443;28;20093;-83
2022/11/19 03:19:57;;;;;;;20.60;14.35;;;;;;;2.09;67.49;99393.38;4986496;28;20113;-81
2022/11/19 03:22:32;;;;;;;25.60;15.55;;;;;;;2.06;67.61;99398.69;5001557;28;20746;-82
2022/11/19 03:25:36;;;;;;;22.50;14.93;;;;;;;2.01;67.98;99406.59;4994312;28;20188;-83
2022/11/19 03:28:10;;;;;;;22.33;13.60;;;;;;;2.01;67.32;99405.72;4976451;28;20074;-83
2022/11/19 03:30:39;;;;;;;22.50;14.32;;;;;;;2.01;67.27;99408.31;4993732;28;20149;-83
2022/11/19 03:33:10;;;;;;;23.17;14.75;;;;;;;1.99;67.41;99404.94;4993817;28;20069;-82
2022/11/19 03:35:43;;;;;;;22.00;14.63;;;;;;;1.99;67.43;99412.72;4993647;28;20081;-82
2022/11/19 03:38:15;;;;;;;23.48;15.23;;;;;;;1.97;67.43;99414.53;4993544;28;20082;-82
2022/11/19 03:40:43;;;;;;;24.30;14.93;;;;;;;1.95;67.47;99410.19;4993756;28;20061;-82
2022/11/19 03:43:14;;;;;;;22.83;15.40;;;;;;;1.93;67.19;99408.53;4993369;28;20491;-81
2022/11/19 03:45:44;;;;;;;22.27;14.60;;;;;;;1.90;67.46;99412.06;4993150;28;20065;-83
2022/11/19 03:48:14;;;;;;;23.48;14.38;;;;;;;1.89;67.25;99414.72;4975976;28;20058;-82
2022/11/19 03:51:07;;;;;;;21.63;14.52;;;;;;;1.83;67.23;99415.72;4976276;28;20097;-83
2022/11/19 03:53:33;;;;;;;16.20;10.38;;;;;;;1.86;67.36;99417.41;4993562;28;20578;-83
2022/11/19 03:56:06;;;;;;;20.33;14.23;;;;;;;1.82;67.05;99421.81;5006970;28;20480;-82
2022/11/19 03:58:41;;;;;;;24.08;15.30;;;;;;;1.78;66.97;99425.38;5032644;28;20061;-82
2022/11/19 04:01:08;;;;;;;21.38;13.90;;;;;;;1.77;67.16;99421.09;5014931;28;20785;-83
2022/11/19 04:03:35;;;;;;;21.50;14.05;;;;;;;1.73;67.34;99425.50;5032412;28;20123;-82
2022/11/19 04:06:03;;;;;;;22.52;14.90;;;;;;;1.71;67.58;99426.44;5032077;28;20061;-85
2022/11/19 04:08:29;;;;;;;23.20;15.70;;;;;;;1.68;67.18;99425.63;5031492;28;20409;-82
2022/11/19 04:10:57;;;;;;;22.17;15.38;;;;;;;1.65;67.12;99432.63;5014746;28;20133;-83
2022/11/19 04:13:23;;;;;;;24.20;14.52;;;;;;;1.64;67.89;99418.81;5032243;28;20107;-82
2022/11/19 04:15:50;;;;;;;26.88;15.07;;;;;;;1.63;67.43;99429.22;5032196;28;20053;-82
2022/11/19 04:18:16;;;;;;;20.23;14.10;;;;;;;1.62;66.93;99435.31;5031872;28;20085;-83
2022/11/19 04:20:44;;;;;;;23.20;14.98;;;;;;;1.58;67.47;99437.13;5032045;28;20592;-82
2022/11/19 04:23:11;;;;;;;21.25;14.48;;;;;;;1.55;66.83;99429.41;5014353;28;20425;-82
2022/11/19 04:25:39;;;;;;;22.85;15.88;;;;;;;1.51;67.01;99435.56;5031742;28;20137;-82
2022/11/19 04:28:05;;;;;;;22.02;14.02;;;;;;;1.45;67.09;99431.38;5014078;28;20133;-82
2022/11/19 04:30:32;;;;;;;24.63;15.10;;;;;;;1.40;66.46;99439.28;5031859;28;20555;-81
2022/11/19 04:32:59;;;;;;;22.50;15.02;;;;;;;1.34;66.33;99439.41;5031990;28;20053;-82
2022/11/19 04:35:25;;;;;;;24.27;14.25;;;;;;;1.29;66.60;99456.84;5031741;28;20603;-82
2022/11/19 04:37:52;;;;;;;23.63;13.82;;;;;;;1.24;66.84;99462.13;5031596;28;20098;-82
2022/11/19 04:40:18;;;;;;;23.23;14.52;;;;;;;1.20;66.95;99462.25;5031815;28;20625;-82
2022/11/19 04:42:45;;;;;;;19.42;13.55;;;;;;;1.14;66.82;99464.09;5014121;28;20079;-82
2022/11/19 04:45:11;;;;;;;20.92;13.63;;;;;;;1.11;66.35;99463.28;5031445;28;20053;-82
2022/11/19 04:47:38;;;;;;;22.48;14.23;;;;;;;1.06;66.57;99462.56;5031596;28;20085;-83
2022/11/19 04:50:05;;;;;;;21.75;13.80;;;;;;;1.02;66.97;99464.38;5031503;28;20096;-82
2022/11/19 04:52:31;;;;;;;23.35;13.90;;;;;;;0.98;67.04;99458.41;4998560;28;20054;-82
2022/11/19 04:55:05;;;;;;;22.50;14.05;;;;;;;0.95;66.74;99467.97;4995107;28;20550;-82
2022/11/19 05:00:39;;;;;;;23.45;13.20;;;;;;;0.88;66.65;99477.63;5004049;28;20134;-83
2022/11/19 05:03:06;;;;;;;23.02;14.20;;;;;;;0.84;66.57;99474.25;4979994;28;20046;-83
2022/11/19 05:05:32;;;;;;;23.50;13.52;;;;;;;0.81;66.83;99468.25;4991926;28;20054;-81
2022/11/19 05:07:59;;;;;;;20.40;12.77;;;;;;;0.78;66.69;99466.59;4991591;28;20247;-82
2022/11/19 05:10:27;;;;;;;18.63;12.57;;;;;;;0.74;67.12;99470.13;5014414;28;20061;-83
2022/11/19 05:12:53;;;;;;;21.10;13.80;;;;;;;0.71;66.88;99475.41;5030932;28;20140;-83
2022/11/19 05:15:20;;;;;;;22.83;13.55;;;;;;;0.68;67.27;99476.31;5031175;28;20107;-82
2022/11/19 05:17:47;;;;;;;20.80;13.55;;;;;;;0.66;66.60;99477.25;5030729;28;20160;-82
2022/11/19 05:20:14;;;;;;;21.63;13.55;;;;;;;0.63;66.50;99484.19;5031406;28;20886;-82
2022/11/19 05:22:40;;;;;;;23.50;13.70;;;;;;;0.60;66.62;99479.06;5030959;28;20045;-82
2022/11/19 05:25:07;;;;;;;21.05;13.63;;;;;;;0.58;67.01;99483.41;5030901;28;20049;-82
2022/11/19 05:27:34;;;;;;;20.80;12.70;;;;;;;0.56;66.92;99487.75;5030811;28;20140;-82
2022/11/19 05:30:00;;;;;;;20.08;12.88;;;;;;;0.55;66.94;99495.59;5030963;28;20383;-82
2022/11/19 05:32:27;;;;;;;22.25;14.25;;;;;;;0.53;66.49;99490.44;5008735;28;20100;-82
2022/11/19 05:34:53;;;;;;;20.40;13.75;;;;;;;0.50;66.92;99498.25;5010853;28;20100;-82
2022/11/19 05:37:20;;;;;;;19.63;13.25;;;;;;;0.48;66.66;99507.78;5010818;28;20144;-82
2022/11/19 05:39:47;;;;;;;21.10;13.55;;;;;;;0.45;66.59;99503.50;4993928;28;20089;-82
2022/11/19 05:42:13;;;;;;;20.30;13.85;;;;;;;0.43;67.12;99504.44;5008070;28;20434;-82
2022/11/19 05:44:40;;;;;;;20.88;13.07;;;;;;;0.40;67.09;99497.59;5011084;28;20128;-82
2022/11/19 05:47:06;;;;;;;21.83;13.75;;;;;;;0.39;66.82;99506.25;4993187;28;20046;-82
2022/11/19 05:49:33;;;;;;;21.48;13.60;;;;;;;0.36;66.96;99501.97;4993412;28;20426;-84
2022/11/19 05:51:59;;;;;;;23.05;13.25;;;;;;;0.35;66.92;99502.00;5008616;28;20145;-83
2022/11/19 05:54:26;;;;;;;21.52;14.13;;;;;;;0.33;67.07;99504.63;5010545;28;20505;-83
2022/11/19 05:56:53;;;;;;;21.98;13.10;;;;;;;0.31;67.07;99508.97;5010317;28;20639;-82
2022/11/19 05:59:19;;;;;;;19.70;12.80;;;;;;;0.30;66.90;99512.44;4993513;28;20081;-82
2022/11/19 06:01:47;;;;;;;20.60;12.40;;;;;;;0.28;66.95;99510.75;4999171;28;20058;-82
2022/11/19 06:04:13;;;;;;;20.33;13.63;;;;;;;0.27;66.60;99515.09;4993551;28;20112;-81
2022/11/19 06:06:40;;;;;;;20.02;13.05;;;;;;;0.27;66.87;99516.81;5010342;28;20058;-83
2022/11/19 06:09:07;;;;;;;22.90;13.35;;;;;;;0.25;66.61;99524.63;5010861;28;20149;-81
2022/11/19 06:11:51;;;;;;;20.77;12.65;;;;;;;0.24;66.87;99526.38;4986247;28;20050;-81
2022/11/19 06:14:23;;;;;;;20.42;12.63;;;;;;;0.22;66.56;99532.47;4996751;28;20671;-81
2022/11/19 06:16:54;;;;;;;20.55;12.73;;;;;;;0.22;66.71;99535.03;5014384;28;20515;-82
2022/11/19 06:19:22;;;;;;;20.95;12.15;;;;;;;0.20;66.30;99532.47;5005926;28;20080;-83
2022/11/19 06:21:49;;;;;;;21.25;12.68;;;;;;;0.18;66.78;99539.41;5010385;28;20057;-82
2022/11/19 06:24:16;;;;;;;21.95;13.27;;;;;;;0.16;66.43;99541.19;4992159;28;20050;-90
2022/11/19 06:26:43;;;;;;;19.83;12.27;;;;;;;0.15;66.58;99538.63;5010368;28;20092;-89
2022/11/19 06:29:12;;;;;;;22.15;13.32;;;;;;;0.14;66.58;99539.50;5010635;28;20050;-85
2022/11/19 06:31:38;;;;;;;20.73;13.25;;;;;;;0.11;67.02;99536.06;5013395;28;20061;-89
2022/11/19 06:34:05;;;;;;;18.77;12.50;;;;;;;0.09;66.38;99545.59;5014127;28;20058;-84
2022/11/19 06:36:32;;;;;;;21.23;13.50;;;;;;;0.08;66.62;99543.88;5014355;28;20073;-87
2022/11/19 06:39:07;;;;;;;21.27;13.30;;;;;;;0.06;66.36;99534.44;5014522;28;20132;-88
2022/11/19 06:41:34;;;;;;;21.40;13.77;;;;;;;0.04;66.77;99538.81;5014289;28;20065;-86
2022/11/19 06:44:00;;;;;;;21.13;12.80;;;;;;;0.03;66.44;99550.03;5014211;28;20055;-88
2022/11/19 06:46:27;;;;;;;19.35;11.93;;;;;;;-0.01;66.46;99555.25;5014144;28;20081;-88
2022/11/19 06:48:53;;;;;;;20.23;12.32;;;;;;;-0.02;66.42;99557.88;5014173;28;20100;-88
2022/11/19 06:51:20;;;;;;;20.00;13.10;;;;;;;-0.05;66.61;99557.91;4996869;28;20201;-89
2022/11/19 06:53:46;;;;;;;21.73;12.77;;;;;;;-0.06;66.76;99563.97;5014145;28;20054;-86
2022/11/19 06:56:13;;;;;;;22.45;13.75;;;;;;;-0.08;66.76;99574.34;5013727;28;20512;-87
2022/11/19 06:58:39;;;;;;;21.67;12.95;;;;;;;-0.10;66.86;99570.94;5013980;28;20060;-88
2022/11/19 07:01:06;;;;;;;21.58;13.43;;;;;;;-0.11;66.78;99569.22;5013595;28;20449;-89
2022/11/19 07:03:32;;;;;;;19.63;12.02;;;;;;;-0.12;66.53;99577.03;4996700;28;20074;-88
2022/11/19 07:06:02;;;;;;;21.13;13.18;;;;;;;-0.14;66.82;99577.03;5014004;28;20061;-88
2022/11/19 07:08:32;;;;;;;20.17;13.00;;;;;;;-0.15;66.82;99568.41;5014770;28;20415;-89
2022/11/19 07:10:59;;;;;;;21.00;12.52;;;;;;;-0.16;66.77;99574.47;5014634;28;20062;-88
2022/11/19 07:13:56;;;;;;;21.23;12.57;;;;;;;-0.17;66.67;99583.13;5014030;28;20695;-89
2022/11/19 07:16:15;;;;;;;19.95;12.23;;;;;;;-0.19;66.83;99579.69;5013529;28;20062;-89
2022/11/19 07:18:41;;;;;;;22.92;12.70;;;;;;;-0.20;66.79;99577.13;5014125;28;20073;-84
2022/11/19 07:21:08;;;;;;;19.23;12.48;;;;;;;-0.21;66.53;99586.63;5013981;28;20046;-86
2022/11/19 07:23:35;;;;;;;21.65;12.43;;;;;;;-0.23;66.81;99580.59;5013973;28;20100;-89
2022/11/19 07:26:01;;;;;;;21.70;12.43;;;;;;;-0.23;66.73;99580.59;5014172;28;20062;-90
2022/11/19 07:28:28;;;;;;;19.27;12.45;;;;;;;-0.22;66.80;99589.22;5013928;28;20051;-86
2022/11/19 07:30:54;;;;;;;20.27;11.77;;;;;;;-0.22;66.37;99594.41;5013554;28;20100;-84
2022/11/19 07:33:21;;;;;;;18.45;12.07;;;;;;;-0.22;66.42;99592.66;5013722;28;20053;-89
2022/11/19 07:35:48;;;;;;;24.95;12.38;;;;;;;-0.22;66.51;99607.34;4995892;28;20060;-84
2022/11/19 07:38:14;;;;;;;18.92;11.73;;;;;;;-0.22;66.78;99610.78;5013071;28;20057;-87
2022/11/19 07:40:41;;;;;;;18.60;11.32;;;;;;;-0.19;66.81;99612.47;5012874;28;20096;-85
2022/11/19 07:43:07;;;;;;;19.85;12.18;;;;;;;-0.19;66.87;99615.91;4996180;28;20069;-87
2022/11/19 07:45:36;;;;;;;18.23;11.13;;;;;;;-0.20;66.61;99618.50;4995508;28;20068;-87
2022/11/19 07:48:03;;;;;;;18.42;10.98;;;;;;;-0.20;66.58;99616.78;5012431;28;20046;-90
2022/11/19 07:50:29;;;;;;;19.10;12.07;;;;;;;-0.19;66.48;99626.25;4995417;28;20052;-88
2022/11/19 07:52:59;;;;;;;18.88;12.13;;;;;;;-0.20;66.39;99628.84;5012967;28;20132;-90
2022/11/19 07:55:25;;;;;;;20.90;13.13;;;;;;;-0.19;66.68;99626.25;5013260;28;20054;-89
2022/11/19 07:57:53;;;;;;;20.42;12.32;;;;;;;-0.19;66.58;99630.59;5013317;28;20050;-90
2022/11/19 08:03:52;;;;;;;18.50;11.55;;;;;;;-0.18;66.90;99640.88;5530300;23;20041;-84
2022/11/19 08:06:24;;;;;;;23.58;12.98;;;;;;;-0.18;66.84;99643.47;5036416;28;20051;-84
2022/11/19 08:08:54;;;;;;;21.48;12.40;;;;;;;-0.17;66.84;99641.75;5053390;28;20057;-84
2022/11/19 08:11:21;;;;;;;19.38;11.45;;;;;;;-0.15;66.85;99652.94;5036410;28;20053;-84
2022/11/19 08:13:47;;;;;;;18.30;11.75;;;;;;;-0.14;66.61;99657.25;5036209;28;20109;-84
2022/11/19 08:19:03;;;;;;;19.95;12.02;;;;;;;-0.09;67.15;99659.75;5053940;28;20059;-85
2022/11/19 08:21:30;;;;;;;19.52;12.18;;;;;;;-0.08;66.87;99651.97;5053130;28;20111;-85
2022/11/19 08:23:57;;;;;;;20.98;12.10;;;;;;;-0.06;66.52;99658.00;5035637;28;20081;-85
2022/11/19 08:26:24;;;;;;;19.50;12.30;;;;;;;-0.05;67.26;99664.00;5035580;28;20087;-85
2022/11/19 08:28:52;;;;;;;19.92;13.30;;;;;;;-0.02;66.50;99663.97;5053647;28;20452;-85
2022/11/19 08:31:19;;;;;;;17.98;11.23;;;;;;;-0.02;66.62;99658.78;5035619;28;20053;-85
2022/11/19 08:33:46;;;;;;;19.42;12.45;;;;;;;-0.01;66.55;99652.72;5035371;28;20057;-85
2022/11/19 08:36:25;;;;;;;19.42;12.00;;;;;;;-0.03;66.14;99657.09;5052862;28;20115;-85
2022/11/19 08:38:55;;;;;;;18.73;11.50;;;;;;;-0.01;66.33;99642.38;5053055;28;20061;-85
2022/11/19 08:44:12;;;;;;;17.52;10.50;;;;;;;0.01;66.69;99651.00;5052696;28;20049;-85
2022/11/19 08:46:39;;;;;;;17.83;10.82;;;;;;;0.02;66.47;99642.34;5035332;28;20080;-85
2022/11/19 08:49:15;;;;;;;18.25;12.05;;;;;;;0.01;65.98;99645.81;5034765;28;20103;-85
2022/11/19 08:51:42;;;;;;;17.33;11.15;;;;;;;0.05;66.68;99656.97;5035522;28;20413;-85
2022/11/19 08:54:08;;;;;;;19.05;11.90;;;;;;;0.06;66.79;99651.75;5052354;28;20057;-85
2022/11/19 08:56:35;;;;;;;17.88;11.27;;;;;;;0.09;66.59;99651.72;5035057;28;20099;-85
2022/11/19 08:59:02;;;;;;;16.83;11.02;;;;;;;0.10;66.64;99663.78;5035170;28;20110;-85
2022/11/19 09:01:29;;;;;;;17.42;11.73;;;;;;;0.12;66.85;99659.41;5051783;28;20561;-85
2022/11/19 09:03:57;;;;;;;18.85;11.48;;;;;;;0.16;66.85;99654.22;5052676;28;20127;-85
2022/11/19 09:06:26;;;;;;;18.45;11.75;;;;;;;0.17;66.43;99656.78;5052156;28;20049;-85
2022/11/19 09:08:52;;;;;;;15.85;10.20;;;;;;;0.19;66.60;99644.66;5034585;28;20080;-85
2022/11/19 09:11:25;;;;;;;17.90;11.20;;;;;;;0.21;66.11;99661.03;5051457;28;20068;-85
2022/11/19 09:13:51;;;;;;;15.27;9.70;;;;;;;0.25;66.40;99654.06;5035066;28;20053;-85
2022/11/19 09:16:23;;;;;;;17.63;11.80;;;;;;;0.25;66.28;99656.66;5034522;28;20049;-85
2022/11/19 09:18:50;;;;;;;15.25;9.98;;;;;;;0.28;66.77;99669.53;5034433;28;20052;-85
2022/11/19 09:21:21;;;;;;;14.20;9.82;;;;;;;0.30;66.26;99659.16;5034804;28;20454;-85
2022/11/19 09:23:47;;;;;;;16.15;10.73;;;;;;;0.34;66.84;99664.25;5052283;28;20057;-85
2022/11/19 09:26:26;;;;;;;14.40;10.63;;;;;;;0.35;65.86;99671.16;5034694;28;20060;-85
2022/11/19 09:28:52;;;;;;;16.23;10.63;;;;;;;0.43;66.59;99677.94;5052431;28;20115;-85
2022/11/19 09:31:19;;;;;;;16.50;11.15;;;;;;;0.45;66.77;99673.59;5052669;28;20053;-84
2022/11/19 09:33:50;;;;;;;16.13;10.52;;;;;;;0.47;66.57;99669.25;5034969;28;20049;-85
2022/11/19 09:36:29;;;;;;;16.42;10.55;;;;;;;0.50;65.69;99669.19;5034154;28;20103;-85
2022/11/19 09:38:57;;;;;;;16.23;11.43;;;;;;;0.54;66.91;99665.69;5052293;28;20543;-85
2022/11/19 09:41:57;;;;;;;17.08;10.95;;;;;;;0.55;65.80;99667.38;5034578;28;20057;-85
2022/11/19 09:44:58;;;;;;;17.35;10.90;;;;;;;0.59;66.35;99662.97;5052477;28;20053;-84
2022/11/19 09:47:54;;;;;;;13.73;9.18;;;;;;;0.62;65.82;99668.13;5034957;28;20084;-85
2022/11/19 09:50:34;;;;;;;16.85;10.20;;;;;;;0.66;65.98;99663.75;5052970;28;20061;-88
2022/11/19 09:53:08;;;;;;;16.23;10.05;;;;;;;0.70;66.17;99665.38;5283492;22;20052;-90
2022/11/19 09:55:37;;;;;;;16.25;10.38;;;;;;;0.73;66.21;99678.28;5050540;28;20200;-89
2022/11/19 09:58:12;;;;;;;17.17;10.55;;;;;;;0.77;66.20;99679.94;5032936;28;20049;-85
2022/11/19 10:00:38;;;;;;;15.18;9.98;;;;;;;0.82;66.46;99683.31;5050364;28;20480;-91
2022/11/19 10:03:14;;;;;;;15.15;10.18;;;;;;;0.85;66.03;99690.16;5050455;28;20041;-92
2022/11/19 10:06:07;;;;;;;14.82;10.02;;;;;;;0.90;65.84;99689.22;5052347;28;20148;-91
2022/11/19 10:09:04;;;;;;;16.63;9.57;;;;;;;0.96;65.82;99696.03;5054759;28;20045;-86
2022/11/19 10:11:52;;;;;;;13.93;9.38;;;;;;;1.04;66.24;99690.69;5054595;28;20221;-90
2022/11/19 10:14:57;;;;;;;15.23;9.85;;;;;;;1.07;65.54;99701.00;5054648;28;20054;-90
2022/11/19 10:18:02;;;;;;;15.10;9.75;;;;;;;1.15;65.55;99691.34;5054388;28;20049;-90
2022/11/19 10:20:34;;;;;;;14.27;9.35;;;;;;;1.21;65.97;99687.78;4973077;28;20519;-90
2022/11/19 10:23:16;;;;;;;17.17;9.98;;;;;;;1.25;65.86;99689.44;5036355;28;20041;-84
2022/11/19 10:25:46;;;;;;;11.93;8.77;;;;;;;1.32;66.18;99692.75;5054162;28;20055;-89
2022/11/19 10:28:25;;;;;;;15.90;10.05;;;;;;;1.37;65.46;99684.88;5054250;28;20376;-91
2022/11/19 10:30:58;;;;;;;15.45;9.98;;;;;;;1.47;66.54;99688.16;5054440;28;20076;-86
2022/11/19 10:33:34;;;;;;;14.40;9.45;;;;;;;1.52;65.64;99684.56;5054199;28;20171;-90
2022/11/19 10:36:06;;;;;;;15.65;9.55;;;;;;;1.63;66.29;99691.25;5053940;28;20045;-88
2022/11/19 10:38:47;;;;;;;14.52;9.90;;;;;;;1.71;65.98;99693.72;5054082;28;20106;-90
2022/11/19 10:41:26;;;;;;;12.60;9.02;;;;;;;1.81;65.79;99684.84;5054250;28;20512;-88
2022/11/19 10:44:37;;;;;;;14.07;9.52;;;;;;;1.90;65.72;99686.34;5054241;28;20071;-88
2022/11/19 10:47:06;;;;;;;15.35;9.32;;;;;;;2.05;66.13;99682.56;5049867;28;20404;-91
2022/11/19 10:49:38;;;;;;;13.27;9.10;;;;;;;2.14;66.09;99684.97;5053655;28;20041;-87
2022/11/19 10:52:16;;;;;;;17.63;7.32;;;;;;;2.27;65.92;99674.25;5036212;28;20148;-90
2022/11/19 10:54:45;;;;;;;15.32;9.52;;;;;;;2.43;66.88;99678.19;5053760;28;20083;-84
2022/11/19 10:57:16;;;;;;;21.27;12.82;;;;;;;2.57;66.93;99677.00;5053597;28;20568;-88
2022/11/19 10:59:43;;;;;;;22.52;13.50;;;;;;;2.80;67.75;99671.22;5053774;28;20587;-88
2022/11/19 11:02:25;;;;;;;22.55;13.73;;;;;;;3.06;66.70;99674.03;5053560;28;20045;-88
2022/11/19 11:05:13;;;;;;;36.58;18.80;;;;;;;3.43;68.38;99679.97;5053558;28;20408;-86
2022/11/19 11:07:45;;;;;;;31.52;17.35;;;;;;;3.92;69.46;99669.81;5053605;28;20053;-88
2022/11/19 11:10:34;;;;;;;21.90;13.70;;;;;;;4.55;69.28;99666.94;5053486;28;20397;-89
2022/11/19 11:16:16;;;;;;;21.15;13.63;;;;;;;6.12;71.71;99657.81;5052701;28;20400;-89
2022/11/19 11:18:44;;;;;;;16.33;10.23;;;;;;;6.82;71.42;99654.09;5053444;28;20467;-88
2022/11/19 11:21:35;;;;;;;11.52;9.18;;;;;;;7.56;64.99;99649.09;5035662;28;20061;-89
2022/11/19 11:24:03;;;;;;;10.57;7.80;;;;;;;8.28;68.75;99658.81;5053252;28;20048;-87
2022/11/19 11:26:32;;;;;;;8.40;7.13;;;;;;;8.93;67.02;99654.78;5052893;28;20059;-90
2022/11/19 11:29:19;;;;;;;8.45;7.47;;;;;;;9.55;66.66;99662.03;5053244;28;20144;-89
2022/11/19 11:31:47;;;;;;;8.27;7.22;;;;;;;10.21;64.96;99661.06;5039583;28;20143;-86
2022/11/19 11:34:29;;;;;;;7.78;7.03;;;;;;;10.65;57.65;99662.91;5053059;28;20072;-90
2022/11/19 11:36:58;;;;;;;11.00;8.30;;;;;;;11.00;58.97;99653.88;5052752;28;20052;-89
2022/11/19 11:39:32;;;;;;;7.00;6.30;;;;;;;11.20;57.54;99655.28;5053158;28;20060;-87
2022/11/19 11:41:59;;;;;;;7.85;7.05;;;;;;;11.37;58.67;99647.28;5035373;28;20102;-89
2022/11/19 11:44:48;;;;;;;8.27;7.45;;;;;;;11.54;57.43;99649.69;5053022;28;20099;-85
2022/11/19 11:47:23;;;;;;;11.05;8.85;;;;;;;11.71;55.32;99650.41;5052709;28;20053;-89
2022/11/19 11:50:13;;;;;;;12.13;7.25;;;;;;;11.86;53.87;99646.78;5052776;28;20474;-88
2022/11/19 11:52:47;;;;;;;7.47;6.60;;;;;;;12.05;55.34;99650.94;5052900;28;20053;-89
2022/11/19 11:55:37;;;;;;;9.43;8.43;;;;;;;12.18;55.36;99650.13;5034742;28;20049;-86
2022/11/19 11:58:23;;;;;;;7.63;6.93;;;;;;;12.24;54.41;99653.22;5052767;28;20179;-86
2022/11/19 12:00:54;;;;;;;8.90;8.00;;;;;;;12.22;52.96;99643.69;5052734;28;20052;-89
2022/11/19 12:03:21;;;;;;;8.38;7.47;;;;;;;12.21;54.63;99647.28;5034812;28;20049;-88
2022/11/19 12:05:51;;;;;;;7.82;7.13;;;;;;;12.14;52.44;99649.47;5052297;28;20367;-90
2022/11/19 12:08:39;;;;;;;6.88;6.03;;;;;;;12.15;52.64;99650.31;5052027;28;20045;-89
2022/11/19 12:11:53;;;;;;;6.32;5.60;;;;;;;12.17;52.46;99646.63;5052473;28;20060;-87
2022/11/19 12:14:23;;;;;;;7.25;6.28;;;;;;;12.23;52.74;99637.47;5006796;28;20053;-89
2022/11/19 12:17:16;;;;;;;6.65;5.45;;;;;;;12.25;54.28;99633.78;5052216;28;20057;-87